createdAt,value
2018-11-11T00:01:12.873Z,11.18
2018-11-11T00:03:41.758Z,11.12
2018-11-11T00:06:11.630Z,11.22
2018-11-11T00:08:40.833Z,11.16
2018-11-11T00:11:11.367Z,11.14
2018-11-11T00:13:40.941Z,11.14
2018-11-11T00:16:11.219Z,11.14
2018-11-11T00:18:40.193Z,11.11
2018-11-11T00:21:09.356Z,11.10
2018-11-11T00:23:38.766Z,11.08
2018-11-11T00:26:08.062Z,11.14
2018-11-11T00:28:37.306Z,11.14
2018-11-11T00:31:05.993Z,11.17
2018-11-11T00:33:34.665Z,11.13
2018-11-11T00:36:03.602Z,11.14
2018-11-11T00:38:33.305Z,11.15
2018-11-11T00:41:03.957Z,11.09
2018-11-11T00:43:33.547Z,11.13
2018-11-11T00:46:03.420Z,11.05
2018-11-11T00:48:33.935Z,11.10
2018-11-11T00:51:07.593Z,11.15
2018-11-11T00:53:36.654Z,11.14
2018-11-11T00:56:05.887Z,11.14
2018-11-11T00:58:36.208Z,11.15
2018-11-11T01:01:05.464Z,11.17
2018-11-11T01:03:34.363Z,11.17
2018-11-11T01:06:04.645Z,11.22
2018-11-11T01:08:34.084Z,11.20
2018-11-11T01:11:04.430Z,11.21
2018-11-11T01:13:33.039Z,11.21
2018-11-11T01:16:03.685Z,11.24
2018-11-11T01:18:34.993Z,11.25
2018-11-11T01:21:04.868Z,11.23
2018-11-11T01:23:34.784Z,11.23
2018-11-11T01:26:04.579Z,11.28
2018-11-11T01:28:34.060Z,11.22
2018-11-11T01:31:02.957Z,11.28
2018-11-11T01:33:32.660Z,11.28
2018-11-11T01:36:01.964Z,11.30
2018-11-11T01:38:32.576Z,11.35
2018-11-11T01:41:02.056Z,11.39
2018-11-11T01:43:31.743Z,11.35
2018-11-11T01:46:01.023Z,11.38
2018-11-11T01:48:30.976Z,11.42
2018-11-11T01:51:00.413Z,11.47
2018-11-11T01:53:29.449Z,11.36
2018-11-11T01:55:59.059Z,11.43
2018-11-11T01:58:28.605Z,11.41
2018-11-11T02:00:57.727Z,11.42
2018-11-11T02:03:28.217Z,11.42
2018-11-11T02:05:57.752Z,11.42
2018-11-11T02:08:27.603Z,11.46
2018-11-11T02:10:56.640Z,11.51
2018-11-11T02:13:25.911Z,11.50
2018-11-11T02:15:55.813Z,11.49
2018-11-11T02:18:25.022Z,11.50
2018-11-11T02:20:55.050Z,11.45
2018-11-11T02:23:24.094Z,11.42
2018-11-11T02:25:54.008Z,11.44
2018-11-11T02:28:23.412Z,11.41
2018-11-11T02:30:53.584Z,11.44
2018-11-11T02:33:24.080Z,11.35
2018-11-11T02:35:52.657Z,11.38
2018-11-11T02:38:21.247Z,11.31
2018-11-11T02:40:50.621Z,11.28
2018-11-11T02:43:19.719Z,11.18
2018-11-11T02:45:48.882Z,11.22
2018-11-11T02:48:18.422Z,11.10
2018-11-11T02:50:47.850Z,11.14
2018-11-11T02:53:16.753Z,11.10
2018-11-11T02:55:45.660Z,11.05
2018-11-11T02:58:14.434Z,11.12
2018-11-11T03:00:43.367Z,11.13
2018-11-11T03:03:12.417Z,11.04
2018-11-11T03:05:42.046Z,11.05
2018-11-11T03:08:11.246Z,11.01
2018-11-11T03:10:41.337Z,11.03
2018-11-11T03:13:14.389Z,10.98
2018-11-11T03:15:44.505Z,10.95
2018-11-11T03:18:13.981Z,10.97
2018-11-11T03:20:43.802Z,10.96
2018-11-11T03:23:13.438Z,10.96
2018-11-11T03:25:42.250Z,10.94
2018-11-11T03:28:11.848Z,10.86
2018-11-11T03:30:40.549Z,10.90
2018-11-11T03:33:09.516Z,10.87
2018-11-11T03:35:38.713Z,10.86
2018-11-11T03:38:09.126Z,10.82
2018-11-11T03:40:38.880Z,10.85
2018-11-11T03:43:08.388Z,10.87
2018-11-11T03:45:37.065Z,10.91
2018-11-11T03:48:06.708Z,10.86
2018-11-11T03:50:37.403Z,10.82
2018-11-11T03:53:07.010Z,10.83
2018-11-11T03:55:36.239Z,10.84
2018-11-11T03:58:04.859Z,10.86
2018-11-11T04:00:33.770Z,10.82
2018-11-11T04:03:03.003Z,10.82
2018-11-11T04:05:31.929Z,10.83
2018-11-11T04:08:02.208Z,10.86
2018-11-11T04:10:31.803Z,10.89
2018-11-11T04:13:01.051Z,10.84
2018-11-11T04:15:30.322Z,10.90
2018-11-11T04:17:59.579Z,10.89
2018-11-11T04:20:29.902Z,10.84
2018-11-11T04:23:00.198Z,10.86
2018-11-11T04:25:30.914Z,10.82
2018-11-11T04:28:00.268Z,10.83
2018-11-11T04:30:28.859Z,10.91
2018-11-11T04:32:59.240Z,10.85
2018-11-11T04:35:28.961Z,10.96
2018-11-11T04:37:58.771Z,10.87
2018-11-11T04:40:28.015Z,10.89
2018-11-11T04:42:57.968Z,10.95
2018-11-11T04:45:27.419Z,11.08
2018-11-11T04:47:56.845Z,11.00
2018-11-11T04:50:26.365Z,11.06
2018-11-11T04:52:55.843Z,11.05
2018-11-11T04:55:24.465Z,11.08
2018-11-11T04:57:54.348Z,11.11
2018-11-11T05:00:24.150Z,11.10
2018-11-11T05:02:54.331Z,11.13
2018-11-11T05:05:23.730Z,11.21
2018-11-11T05:07:52.981Z,11.20
2018-11-11T05:10:23.580Z,11.24
2018-11-11T05:12:52.165Z,11.23
2018-11-11T05:15:20.948Z,11.31
2018-11-11T05:17:49.960Z,11.29
2018-11-11T05:20:20.324Z,11.25
2018-11-11T05:22:49.469Z,11.27
2018-11-11T05:25:18.389Z,11.28
2018-11-11T05:27:47.704Z,11.30
2018-11-11T05:30:19.518Z,11.28
2018-11-11T05:32:48.712Z,11.23
2018-11-11T05:35:18.109Z,11.25
2018-11-11T05:37:48.045Z,11.23
2018-11-11T05:40:17.181Z,11.25
2018-11-11T05:42:47.635Z,11.21
2018-11-11T05:45:17.859Z,11.24
2018-11-11T05:47:46.728Z,11.25
2018-11-11T05:50:17.053Z,11.26
2018-11-11T05:52:46.935Z,11.16
2018-11-11T05:55:15.500Z,11.18
2018-11-11T05:57:45.492Z,11.18
2018-11-11T06:00:16.518Z,11.12
2018-11-11T06:02:45.937Z,11.16
2018-11-11T06:05:18.972Z,11.06
2018-11-11T06:07:49.009Z,11.02
2018-11-11T06:10:18.495Z,10.91
2018-11-11T06:12:47.674Z,10.89
2018-11-11T06:15:16.922Z,10.84
2018-11-11T06:17:46.119Z,10.78
2018-11-11T06:20:16.900Z,10.81
2018-11-11T06:22:46.404Z,10.86
2018-11-11T06:25:15.893Z,10.79
2018-11-11T06:27:45.131Z,10.79
2018-11-11T06:30:14.801Z,10.76
2018-11-11T06:32:44.491Z,10.75
2018-11-11T06:35:15.245Z,10.72
2018-11-11T06:37:44.146Z,10.70
2018-11-11T06:40:14.193Z,10.69
2018-11-11T06:42:43.452Z,10.66
2018-11-11T06:45:13.562Z,10.63
2018-11-11T06:47:43.646Z,10.56
2018-11-11T06:50:14.277Z,10.54
2018-11-11T06:52:43.755Z,10.55
2018-11-11T06:55:14.339Z,10.56
2018-11-11T06:57:43.888Z,10.57
2018-11-11T07:00:15.713Z,10.53
2018-11-11T07:02:57.637Z,10.47
2018-11-11T07:05:26.998Z,10.53
2018-11-11T07:07:56.864Z,10.47
2018-11-11T07:10:26.945Z,10.54
2018-11-11T07:12:57.609Z,10.51
2018-11-11T07:15:27.068Z,10.59
2018-11-11T07:17:55.982Z,10.56
2018-11-11T07:20:25.784Z,10.57
2018-11-11T07:22:54.940Z,10.60
2018-11-11T07:25:23.958Z,10.61
2018-11-11T07:27:53.082Z,10.63
2018-11-11T07:30:22.450Z,10.69
2018-11-11T07:32:51.532Z,10.71
2018-11-11T07:35:21.092Z,10.68
2018-11-11T07:37:51.170Z,10.71
2018-11-11T07:40:21.796Z,10.73
2018-11-11T07:42:51.411Z,10.73
2018-11-11T07:45:20.424Z,10.69
2018-11-11T07:47:50.039Z,10.77
2018-11-11T07:50:19.087Z,10.73
2018-11-11T07:52:48.782Z,10.76
2018-11-11T07:55:25.884Z,10.66
2018-11-11T07:57:56.778Z,10.77
2018-11-11T08:00:34.113Z,10.73
2018-11-11T08:03:13.566Z,10.71
2018-11-11T08:05:50.799Z,10.63
2018-11-11T08:08:29.583Z,10.64
2018-11-11T08:11:12.702Z,10.74
2018-11-11T08:16:24.528Z,10.86
2018-11-11T08:18:56.662Z,10.91
2018-11-11T08:21:26.038Z,10.92
2018-11-11T08:24:17.662Z,10.85
2018-11-11T08:27:04.177Z,10.90
2018-11-11T08:29:47.815Z,10.99
2018-11-11T08:32:25.394Z,10.91
2018-11-11T08:35:00.778Z,10.91
2018-11-11T08:37:37.516Z,10.87
2018-11-11T08:40:12.242Z,10.88
2018-11-11T08:42:43.863Z,10.83
2018-11-11T08:45:20.387Z,10.88
2018-11-11T08:47:58.259Z,10.79
2018-11-11T08:50:33.114Z,10.82
2018-11-11T08:53:04.884Z,10.76
2018-11-11T08:55:41.675Z,10.87
2018-11-11T08:58:23.183Z,10.80
2018-11-11T09:01:06.365Z,10.86
2018-11-11T09:03:39.441Z,10.94
2018-11-11T09:06:14.127Z,10.99
2018-11-11T09:08:50.266Z,11.08
2018-11-11T09:11:25.580Z,11.15
2018-11-11T09:14:03.583Z,11.17
2018-11-11T09:16:40.529Z,11.23
2018-11-11T09:19:12.411Z,11.36
2018-11-11T09:21:59.774Z,11.54
2018-11-11T09:24:47.139Z,11.63
2018-11-11T09:27:33.602Z,11.90
2018-11-11T09:30:16.385Z,12.04
2018-11-11T09:32:59.891Z,12.25
2018-11-11T09:35:37.217Z,12.41
2018-11-11T09:38:12.602Z,12.55
2018-11-11T09:41:04.173Z,12.73
2018-11-11T09:46:41.417Z,13.17
2018-11-11T09:49:21.395Z,13.29
2018-11-11T09:51:51.156Z,13.42
2018-11-11T09:54:22.344Z,13.43
2018-11-11T09:56:57.517Z,13.55
2018-11-11T09:59:44.085Z,13.59
2018-11-11T10:02:22.803Z,13.52
2018-11-11T10:05:44.378Z,13.27
2018-11-11T10:08:28.495Z,13.09
2018-11-11T10:11:17.118Z,13.02
2018-11-11T10:13:59.675Z,12.87
2018-11-11T10:17:13.412Z,12.72
2018-11-11T10:19:56.165Z,12.78
2018-11-11T10:22:49.851Z,12.83
2018-11-11T10:25:30.220Z,12.97
2018-11-11T10:28:15.491Z,13.10
2018-11-11T10:32:00.427Z,13.14
2018-11-11T10:35:10.888Z,13.42
2018-11-11T10:37:48.589Z,13.65
2018-11-11T10:43:18.456Z,14.07
2018-11-11T10:45:52.431Z,14.04
2018-11-11T10:48:34.605Z,13.93
2018-11-11T10:51:20.181Z,13.98
2018-11-11T10:53:54.436Z,13.78
2018-11-11T10:56:27.688Z,13.81
2018-11-11T10:59:00.369Z,13.67
2018-11-11T11:01:37.969Z,13.57
2018-11-11T11:04:06.668Z,13.81
2018-11-11T11:09:16.153Z,13.91
2018-11-11T11:11:46.100Z,13.99
2018-11-11T11:14:15.341Z,14.16
2018-11-11T11:16:46.370Z,14.06
2018-11-11T11:19:15.782Z,13.53
2018-11-11T11:21:44.995Z,13.60
2018-11-11T11:24:15.815Z,13.53
2018-11-11T11:26:45.258Z,13.34
2018-11-11T11:29:13.893Z,13.35
2018-11-11T11:31:44.974Z,13.28
2018-11-11T11:34:14.553Z,13.40
2018-11-11T11:36:52.611Z,13.57
2018-11-11T11:39:33.966Z,13.68
2018-11-11T11:42:06.497Z,13.82
2018-11-11T11:44:39.957Z,14.24
2018-11-11T11:47:18.316Z,14.30
2018-11-11T11:49:51.334Z,14.57
2018-11-11T11:52:25.921Z,14.84
2018-11-11T11:54:57.836Z,14.75
2018-11-11T11:57:38.294Z,14.81
2018-11-11T12:00:15.780Z,14.73
2018-11-11T12:02:49.514Z,14.87
2018-11-11T12:05:25.912Z,14.77
2018-11-11T12:08:00.188Z,14.76
2018-11-11T12:10:32.031Z,14.85
2018-11-11T12:13:04.383Z,14.81
2018-11-11T12:15:38.034Z,14.85
2018-11-11T12:18:09.102Z,14.59
2018-11-11T12:20:41.109Z,14.75
2018-11-11T12:23:23.499Z,14.62
2018-11-11T12:25:56.909Z,14.53
2018-11-11T12:28:37.292Z,14.26
2018-11-11T12:31:13.688Z,14.33
2018-11-11T12:33:52.574Z,14.34
2018-11-11T12:36:30.949Z,14.27
2018-11-11T12:39:09.431Z,14.18
2018-11-11T12:41:40.517Z,14.13
2018-11-11T12:44:13.250Z,14.17
2018-11-11T12:46:50.209Z,14.31
2018-11-11T12:49:24.504Z,14.56
2018-11-11T12:52:07.939Z,14.92
2018-11-11T12:54:40.490Z,15.18
2018-11-11T12:57:11.655Z,15.61
2018-11-11T12:59:47.790Z,16.01
2018-11-11T13:02:21.791Z,16.24
2018-11-11T13:04:58.185Z,15.70
2018-11-11T13:07:28.683Z,15.45
2018-11-11T13:10:02.084Z,15.07
2018-11-11T13:12:36.210Z,14.88
2018-11-11T13:15:08.773Z,14.75
2018-11-11T13:18:00.142Z,14.68
2018-11-11T13:20:34.441Z,14.63
2018-11-11T13:23:12.820Z,14.46
2018-11-11T13:25:45.735Z,14.48
2018-11-11T13:28:20.490Z,14.45
2018-11-11T13:30:52.842Z,14.46
2018-11-11T13:33:35.997Z,14.50
2018-11-11T13:36:13.317Z,14.47
2018-11-11T13:38:48.035Z,14.41
2018-11-11T13:41:40.976Z,14.42
2018-11-11T13:44:12.026Z,14.38
2018-11-11T13:46:41.294Z,14.44
2018-11-11T13:49:11.222Z,14.39
2018-11-11T13:51:40.505Z,14.45
2018-11-11T13:54:12.027Z,14.43
2018-11-11T13:56:41.888Z,14.38
2018-11-11T13:59:11.492Z,14.38
2018-11-11T14:01:48.552Z,14.39
2018-11-11T14:04:29.205Z,14.33
2018-11-11T14:07:01.336Z,14.29
2018-11-11T14:09:31.819Z,14.24
2018-11-11T14:12:04.724Z,14.27
2018-11-11T14:14:33.831Z,14.28
2018-11-11T14:17:02.597Z,14.28
2018-11-11T14:19:31.856Z,14.24
2018-11-11T14:22:07.738Z,14.31
2018-11-11T14:24:48.448Z,14.34
2018-11-11T14:27:26.389Z,14.39
2018-11-11T14:30:02.548Z,14.67
2018-11-11T14:32:36.023Z,15.72
2018-11-11T14:35:11.049Z,16.37
2018-11-11T14:37:43.125Z,17.17
2018-11-11T14:40:27.418Z,17.10
2018-11-11T14:42:58.284Z,17.61
2018-11-11T14:45:41.352Z,17.85
2018-11-11T14:48:12.636Z,17.74
2018-11-11T14:50:49.763Z,17.33
2018-11-11T14:53:25.098Z,16.77
2018-11-11T14:55:57.161Z,16.29
2018-11-11T14:58:29.691Z,15.89
2018-11-11T15:01:01.393Z,15.27
2018-11-11T15:03:33.580Z,15.33
2018-11-11T15:06:14.975Z,15.09
2018-11-11T15:08:51.669Z,15.04
2018-11-11T15:11:24.670Z,14.86
2018-11-11T15:14:03.218Z,14.91
2018-11-11T15:16:42.022Z,14.88
2018-11-11T15:19:18.129Z,14.71
2018-11-11T15:21:56.437Z,14.72
2018-11-11T15:24:27.549Z,14.66
2018-11-11T15:27:15.551Z,14.59
2018-11-11T15:29:49.696Z,14.62
2018-11-11T15:32:30.386Z,14.61
2018-11-11T15:35:03.907Z,14.48
2018-11-11T15:37:40.506Z,14.54
2018-11-11T15:40:18.264Z,14.55
2018-11-11T15:42:56.074Z,14.46
2018-11-11T15:45:33.550Z,14.45
2018-11-11T15:48:05.036Z,14.45
2018-11-11T15:50:40.314Z,14.52
2018-11-11T15:53:16.012Z,14.45
2018-11-11T15:55:50.183Z,14.37
2018-11-11T15:58:27.738Z,14.43
2018-11-11T16:01:01.064Z,14.32
2018-11-11T16:03:37.953Z,14.38
2018-11-11T16:06:11.507Z,14.31
2018-11-11T16:08:54.063Z,14.38
2018-11-11T16:11:25.861Z,14.35
2018-11-11T16:14:09.155Z,14.32
2018-11-11T16:16:46.889Z,14.31
2018-11-11T16:19:29.185Z,14.24
2018-11-11T16:22:02.949Z,14.27
2018-11-11T16:24:42.929Z,14.27
2018-11-11T16:30:07.521Z,14.35
2018-11-11T16:32:42.146Z,14.33
2018-11-11T16:35:15.156Z,14.35
2018-11-11T16:37:46.965Z,14.35
2018-11-11T16:40:50.570Z,14.30
2018-11-11T16:43:23.347Z,14.30
2018-11-11T16:45:54.415Z,14.36
2018-11-11T16:48:23.598Z,14.31
2018-11-11T16:51:00.900Z,14.28
2018-11-11T16:53:33.296Z,14.27
2018-11-11T16:56:03.290Z,14.26
2018-11-11T16:58:36.172Z,14.19
2018-11-11T17:01:11.140Z,14.17
2018-11-11T17:03:40.581Z,14.13
2018-11-11T17:06:20.179Z,14.02
2018-11-11T17:08:57.137Z,14.00
2018-11-11T17:11:29.526Z,13.94
2018-11-11T17:14:05.797Z,13.89
2018-11-11T17:16:38.417Z,13.87
2018-11-11T17:19:10.739Z,13.89
2018-11-11T17:21:43.319Z,13.82
2018-11-11T17:24:15.903Z,13.81
2018-11-11T17:26:48.852Z,13.70
2018-11-11T17:29:22.699Z,13.72
2018-11-11T17:31:56.576Z,13.77
2018-11-11T17:34:30.372Z,13.78
2018-11-11T17:37:03.492Z,13.68
2018-11-11T17:39:35.583Z,13.63
2018-11-11T17:42:08.140Z,13.60
2018-11-11T17:44:39.071Z,13.63
2018-11-11T17:47:13.780Z,13.56
2018-11-11T17:49:49.676Z,13.61
2018-11-11T17:52:22.820Z,13.53
2018-11-11T17:55:03.319Z,13.61
2018-11-11T17:57:35.373Z,13.63
2018-11-11T18:00:11.417Z,13.66
2018-11-11T18:02:48.594Z,13.68
2018-11-11T18:05:20.394Z,13.64
2018-11-11T18:07:58.479Z,13.62
2018-11-11T18:10:31.652Z,13.61
2018-11-11T18:13:19.909Z,13.57
2018-11-11T18:15:52.337Z,13.68
2018-11-11T18:18:33.164Z,13.59
2018-11-11T18:21:01.839Z,13.52
2018-11-11T18:23:31.764Z,13.59
2018-11-11T18:26:00.460Z,13.53
2018-11-11T18:28:29.766Z,13.47
2018-11-11T18:30:59.587Z,13.57
2018-11-11T18:33:28.302Z,13.42
2018-11-11T18:35:57.908Z,13.50
2018-11-11T18:38:27.261Z,13.52
2018-11-11T18:40:56.361Z,13.60
2018-11-11T18:43:25.612Z,13.58
2018-11-11T18:45:55.232Z,13.62
2018-11-11T18:48:24.677Z,13.61
2018-11-11T18:50:54.058Z,13.57
2018-11-11T18:53:23.214Z,13.57
2018-11-11T18:55:52.457Z,13.52
2018-11-11T18:58:21.694Z,13.49
2018-11-11T19:00:52.070Z,13.44
2018-11-11T19:03:21.786Z,13.40
2018-11-11T19:05:51.876Z,13.39
2018-11-11T19:08:21.616Z,13.33
2018-11-11T19:10:51.403Z,13.26
2018-11-11T19:13:20.724Z,13.22
2018-11-11T19:15:50.125Z,13.17
2018-11-11T19:18:19.928Z,13.11
2018-11-11T19:20:49.491Z,13.08
2018-11-11T19:23:18.403Z,13.13
2018-11-11T19:25:48.080Z,13.07
2018-11-11T19:28:17.602Z,13.03
2018-11-11T19:30:46.349Z,13.05
2018-11-11T19:33:15.791Z,13.01
2018-11-11T19:35:45.004Z,13.04
2018-11-11T19:38:14.282Z,12.96
2018-11-11T19:40:44.056Z,12.88
2018-11-11T19:43:12.977Z,12.97
2018-11-11T19:45:42.233Z,12.84
2018-11-11T19:48:12.650Z,12.90
2018-11-11T19:50:43.190Z,13.00
2018-11-11T19:53:12.605Z,12.97
2018-11-11T19:55:41.444Z,13.05
2018-11-11T19:58:10.805Z,13.02
2018-11-11T20:00:40.205Z,12.99
2018-11-11T20:03:09.202Z,12.99
2018-11-11T20:05:38.529Z,12.95
2018-11-11T20:08:08.116Z,12.97
2018-11-11T20:10:36.898Z,13.01
2018-11-11T20:13:06.309Z,12.96
2018-11-11T20:15:35.340Z,12.88
2018-11-11T20:18:05.464Z,12.95
2018-11-11T20:20:35.769Z,12.97
2018-11-11T20:23:05.920Z,12.99
2018-11-11T20:25:35.333Z,13.02
2018-11-11T20:28:05.415Z,13.04
2018-11-11T20:30:36.935Z,13.10
2018-11-11T20:33:06.258Z,13.12
2018-11-11T20:35:35.597Z,13.11
2018-11-11T20:38:04.204Z,13.17
2018-11-11T20:40:33.549Z,13.14
2018-11-11T20:43:02.569Z,13.15
2018-11-11T20:45:33.480Z,13.12
2018-11-11T20:48:02.682Z,13.16
2018-11-11T20:50:32.901Z,13.15
2018-11-11T20:53:03.977Z,13.27
2018-11-11T20:55:32.962Z,13.15
2018-11-11T20:58:02.112Z,13.16
2018-11-11T21:00:32.500Z,13.21
2018-11-11T21:03:08.007Z,13.21
2018-11-11T21:05:46.059Z,13.21
2018-11-11T21:08:15.176Z,13.04
2018-11-11T21:10:50.678Z,12.95
2018-11-11T21:13:25.212Z,12.92
2018-11-11T21:16:00.396Z,12.80
2018-11-11T21:18:38.417Z,12.71
2018-11-11T21:21:11.450Z,12.40
2018-11-11T21:23:45.989Z,12.23
2018-11-11T21:26:25.573Z,12.24
2018-11-11T21:29:14.139Z,12.20
2018-11-11T21:31:48.064Z,12.29
2018-11-11T21:34:18.243Z,12.13
2018-11-11T21:36:53.347Z,12.04
2018-11-11T21:39:22.213Z,11.96
2018-11-11T21:41:50.804Z,12.02
2018-11-11T21:44:19.537Z,11.96
2018-11-11T21:46:48.922Z,12.09
2018-11-11T21:49:18.838Z,12.08
2018-11-11T21:51:47.789Z,12.21
2018-11-11T21:54:17.659Z,12.31
2018-11-11T21:56:46.482Z,12.29
2018-11-11T21:59:15.689Z,12.29
2018-11-11T22:01:45.923Z,12.20
2018-11-11T22:04:16.488Z,12.19
2018-11-11T22:06:46.559Z,12.09
2018-11-11T22:09:15.987Z,12.10
2018-11-11T22:11:45.386Z,11.89
2018-11-11T22:14:13.925Z,11.91
2018-11-11T22:16:42.949Z,12.01
2018-11-11T22:19:12.446Z,12.04
2018-11-11T22:21:41.811Z,12.07
2018-11-11T22:24:11.156Z,12.03
2018-11-11T22:26:41.471Z,12.02
2018-11-11T22:29:12.016Z,12.09
2018-11-11T22:31:41.265Z,12.07
2018-11-11T22:34:10.061Z,12.06
2018-11-11T22:36:38.884Z,12.01
2018-11-11T22:39:09.783Z,12.03
2018-11-11T22:41:40.232Z,11.99
2018-11-11T22:44:12.002Z,11.98
2018-11-11T22:46:40.777Z,11.96
2018-11-11T22:49:09.857Z,11.91
2018-11-11T22:51:40.891Z,11.81
2018-11-11T22:54:10.224Z,11.76
2018-11-11T22:56:39.812Z,11.70
2018-11-11T22:59:09.160Z,11.67
2018-11-11T23:01:39.851Z,11.66
2018-11-11T23:04:08.876Z,11.61
2018-11-11T23:06:38.602Z,11.45
2018-11-11T23:09:22.208Z,11.39
2018-11-11T23:11:52.091Z,11.45
2018-11-11T23:14:31.745Z,11.50
2018-11-11T23:17:03.287Z,11.53
2018-11-11T23:19:39.989Z,11.51
2018-11-11T23:22:15.251Z,11.36
2018-11-11T23:24:47.303Z,11.27
2018-11-11T23:27:17.828Z,11.26
2018-11-11T23:29:48.193Z,11.25
2018-11-11T23:32:23.366Z,11.29
2018-11-11T23:34:52.286Z,11.33
2018-11-11T23:37:28.865Z,11.31
2018-11-11T23:40:01.251Z,11.32
2018-11-11T23:42:37.636Z,11.10
2018-11-11T23:45:09.257Z,11.18
2018-11-11T23:47:39.185Z,11.18
2018-11-11T23:50:13.243Z,11.23
2018-11-11T23:52:47.685Z,11.12
2018-11-11T23:55:24.135Z,11.11
2018-11-11T23:57:53.429Z,11.06
